EW2930 Weather Reports


time (UTC)temp
F
wind
direction
speed
knots
gust
knots
rain 1hr
in
rain 24hr
in
rain mn
in
humidity
%
barometer
mb
20260504130258 59 206 3.5 6.1 0.00 0.00 0.00 52 1003.7
20260504120150 51 197 4.3 6.1 0.00 0.00 0.00 65 1003.7
20260504110613 47 202 3.5 6.1 0.00 0.00 0.00 74 1003.7
20260504100611 48 233 1.7 4.3 0.00 0.00 0.00 72 1003.7
20260504081716 0 260 3.5 3.5 0.00 0.00 0.00
20260504080927 51 240 2.6 4.3 0.00 0.00 0.00 70 1004.1
20260504080247 51 254 3.5 4.3 0.00 0.00 0.00 70 1004.1
20260504070138 54 279 3.5 5.2 0.00 0.00 0.00 66 1005.1
20260504060138 56 263 4.3 7.0 0.00 0.00 0.00 62 1005.8
20260504050710 58 273 5.2 8.7 0.00 0.00 0.00 58 1005.8
20260504045350 58 265 4.3 8.7 0.00 0.00 0.00 58 1005.8
20260504044710 59 261 5.2 8.7 0.00 0.00 0.00 57 1005.8
20260504044031 59 253 4.3 7.8 0.00 0.00 0.00 57 1005.8
20260504043350 58 237 4.3 7.0 0.00 0.00 0.00 58 1005.8
20260504042710 59 221 3.5 7.0 0.00 0.00 0.00 58 1005.8
20260504042031 59 223 4.3 9.6 0.00 0.00 0.00 57 1005.8
20260504041349 59 214 4.3 8.7 0.00 0.00 0.00 57 1005.8
20260504040710 59 217 5.2 9.6 0.00 0.00 0.00 56 1005.8
20260504040031 60 227 5.2 9.6 0.00 0.00 0.00 56 1005.8
20260504035351 60 220 5.2 8.7 0.00 0.00 0.00 56 1005.8
20260504034711 0 212 3.5 3.5 0.00 0.00 0.00
20260504033921 60 222 4.3 8.7 0.00 0.00 0.00 55 1005.8
20260504033242 60 222 3.5 7.8 0.00 0.00 0.00 55 1005.8
20260504032602 60 208 4.3 7.0 0.00 0.00 0.00 55 1005.8
20260504031923 0 231 4.3 4.3 0.00 0.00 0.00
20260504031022 61 213 4.3 7.8 0.00 0.00 0.00 54 1005.8
20260504030342 61 217 4.3 7.8 0.00 0.00 0.00 54 1005.8
20260504025703 61 216 3.5 7.8 0.00 0.00 0.00 53 1005.8
20260504025023 61 212 3.5 7.0 0.00 0.00 0.00 53 1005.8
20260504024342 61 284 0.9 2.6 0.00 0.00 0.00 52 1005.8
20260504023552 62 220 3.5 7.0 0.00 0.00 0.00 52 1006.2
20260504022913 62 218 3.5 5.2 0.00 0.00 0.00 51 1006.2
20260504022232 62 221 3.5 6.1 0.00 0.00 0.00 50 1005.8
20260504021553 62 219 3.5 6.1 0.00 0.00 0.00 50 1005.8
20260504020912 63 218 3.5 6.1 0.00 0.00 0.00 49 1005.8
20260504020232 63 209 3.5 6.1 0.00 0.00 0.00 48 1005.8
20260504015552 64 224 3.5 7.0 0.00 0.00 0.00 48 1005.8
20260504014913 64 229 4.3 7.0 0.00 0.00 0.00 47 1005.8
20260504014233 0 213 5.2 5.2 0.00 0.00 0.00
20260504013335 64 241 5.2 11.3 0.00 0.00 0.00 46 1005.8
20260504012655 64 234 4.3 7.0 0.00 0.00 0.00 46 1005.8
20260504012017 64 230 3.5 7.8 0.00 0.00 0.00 46 1005.5
20260504011335 65 231 3.5 7.8 0.00 0.00 0.00 46 1005.5
20260504010655 65 222 3.5 7.8 0.00 0.00 0.00 45 1005.5
20260504010015 66 221 3.5 7.8 0.00 0.00 0.00 44 1005.5
20260504005336 66 223 3.5 7.0 0.00 0.00 0.00 44 1005.1
20260504004655 0 242 2.6 2.6 0.00 0.00 0.00
20260504003906 67 228 4.3 8.7 0.00 0.00 0.00 43 1005.5
20260504003227 67 235 4.3 8.7 0.00 0.00 0.00 42 1005.5
20260504002547 67 234 4.3 8.7 0.00 0.00 0.00 42 1005.5
20260504001906 68 247 3.5 13.0 0.00 0.00 0.00 42 1005.5
20260504001227 68 242 7.0 13.0 0.00 0.00 0.00 42 1005.5
20260504000547 0 212 3.5 3.5 0.00 0.00 0.00
20260503235758 68 243 5.2 13.9 0.00 0.00 0.00 41 1005.5
20260503235118 68 248 7.0 14.8 0.00 0.00 0.00 40 1005.5
20260503234438 68 246 7.0 14.8 0.00 0.00 0.00 40 1005.5
20260503233759 69 263 6.1 12.2 0.00 0.00 0.00 40 1005.5
20260503233118 69 256 7.0 12.2 0.00 0.00 0.00 40 1005.5
20260503232439 0 265 7.0 7.0 0.00 0.00 0.00
20260503231648 0 306 10.4 10.4 0.00 0.00 0.00
20260503230900 69 261 8.7 16.5 0.00 0.00 0.00 40 1005.8
20260503230220 68 266 10.4 18.2 0.00 0.00 0.00 40 1005.8
20260503225540 69 267 9.6 16.5 0.00 0.00 0.00 40 1005.8
20260503224900 69 289 11.3 16.5 0.00 0.00 0.00 39 1005.8
20260503224220 0 253 4.3 4.3 0.00 0.00 0.00
20260503223432 68 273 9.6 18.2 0.00 0.00 0.00 39 1005.8
20260503222752 69 262 10.4 20.9 0.00 0.00 0.00 39 1005.8
20260503222113 68 267 13.0 21.7 0.00 0.00 0.00 40 1005.8
20260503221432 69 280 10.4 19.1 0.00 0.00 0.00 40 1005.8
20260503220752 69 264 9.6 18.2 0.00 0.00 0.00 38 1005.8
20260503220113 69 245 7.0 19.1 0.00 0.00 0.00 39 1005.8
20260503215432 68 221 7.0 17.4 0.00 0.00 0.00 40 1005.8
20260503214752 67 219 8.7 16.5 0.00 0.00 0.00 40 1005.8
20260503214112 67 211 9.6 17.4 0.00 0.00 0.00 40 1005.8
20260503213432 68 230 8.7 19.1 0.00 0.00 0.00 39 1005.8
20260503212753 68 224 7.0 20.0 0.00 0.00 0.00 40 1006.2
20260503212113 67 254 12.2 22.6 0.00 0.00 0.00 41 1006.2
20260503211433 67 252 9.6 22.6 0.00 0.00 0.00 40 1006.5
20260503210753 67 253 10.4 19.1 0.00 0.00 0.00 41 1006.5
20260503210113 67 235 7.8 20.9 0.00 0.00 0.00 40 1006.9
20260503205433 66 215 10.4 19.1 0.00 0.00 0.00 40 1006.9
20260503204753 0 256 10.4 10.4 0.00 0.00 0.00
20260503204006 65 229 8.7 23.5 0.00 0.00 0.00 40 1007.2
20260503203327 66 223 10.4 23.5 0.00 0.00 0.00 40 1007.2
20260503202646 65 227 12.2 22.6 0.00 0.00 0.00 40 1007.2
20260503202007 65 211 13.0 20.9 0.00 0.00 0.00 39 1007.2
20260503201326 66 240 7.8 20.9 0.00 0.00 0.00 39 1007.6
20260503200645 65 242 10.4 22.6 0.00 0.00 0.00 40 1007.6
20260503200005 64 232 10.4 19.1 0.00 0.00 0.00 43 1007.9
20260503195326 63 230 9.6 22.6 0.00 0.00 0.00 45 1007.9
20260503194645 63 203 9.6 20.9 0.00 0.00 0.00 46 1007.9
20260503194006 63 224 10.4 22.6 0.00 0.00 0.00 47 1008.3
20260503193325 62 217 13.9 24.3 0.00 0.00 0.00 49 1008.3
20260503192645 62 215 13.9 21.7 0.00 0.00 0.00 47 1008.3
20260503192006 0 207 9.6 9.6 0.00 0.00 0.00
20260503191215 61 201 12.2 22.6 0.00 0.00 0.00 48 1008.6
20260503190534 0 196 11.3 11.3 0.00 0.00 0.00
20260503185746 61 207 8.7 23.5 0.00 0.00 0.00 47 1008.6
20260503185106 61 195 9.6 26.1 0.00 0.00 0.00 46 1008.6
20260503184426 60 201 12.2 24.3 0.00 0.00 0.00 46 1008.6
20260503183746 60 199 13.0 22.6 0.00 0.00 0.00 46 1008.6
20260503183105 60 194 9.6 22.6 0.00 0.00 0.00 46 1008.6
20260503182425 60 208 11.3 21.7 0.00 0.00 0.00 46 1008.6
20260503181745 0 194 14.8 14.8 0.00 0.00 0.00
20260503180957 59 211 10.4 21.7 0.00 0.00 0.00 47 1009.0
20260503180317 59 203 11.3 23.5 0.00 0.00 0.00 48 1009.3
20260503175637 58 205 13.0 25.2 0.00 0.00 0.00 48 1009.3
20260503174957 58 202 13.9 25.2 0.00 0.00 0.00 49 1009.3
20260503174318 58 192 12.2 20.0 0.00 0.00 0.00 50 1009.3
20260503173637 59 213 8.7 19.1 0.00 0.00 0.00 48 1009.7
20260503172957 59 207 10.4 26.1 0.00 0.00 0.00 49 1010.0
20260503172317 58 213 13.9 26.1 0.00 0.00 0.00 50 1010.0
20260503171637 0 196 10.4 10.4 0.00 0.00 0.00
20260503170849 57 208 12.2 20.9 0.00 0.00 0.01 54 1010.3
20260503170208 56 212 14.8 25.2 0.00 0.00 0.01 55 1010.7
20260503160209 51 209 7.8 16.5 0.00 0.00 0.01 66 1012.1
20260503150850 53 242 11.3 24.3 0.00 0.00 0.00 57 1013.1
20260503150209 54 232 12.2 24.3 0.00 0.00 0.00 55 1012.8
20260503140209 52 240 7.8 15.6 0.00 0.00 0.00 56 1013.1